KMCB/MCB METAR and TAF weather

Enter ICAO airport designator
Station Type Date Time Source
KMCB METAR 2020/07/03 16:14 UTC NOAA

KMCB 031614Z AUTO VRB05KT 2 1/2SM TSRA BR FEW021 BKN031 OVC080 23/22 A3002 RMK AO2 PK WND 33028/1554 LTG DSNT SW P0026 T02280217 $


Station Type Date Time Source
KMCB Decoded METAR 2020/07/03 16:14 UTC NOAA

MCCOMB/PIKE COUNTY AIRPORT, MS, United States (KMCB) 31-11N 90-28W 124M
Jul 03, 2020 - 12:14 PM EDT / 2020.07.03 1614 UTC
Wind: Variable at 6 MPH (5 KT):0
Visibility: 2 1/2 mile(s):0
Sky conditions: overcast
Weather: rain with thunder; mist; Lightning observed
Precipitation last hour: 0.26 inches
Temperature: 73.0 F (22.8 C)
Dew Point: 71.1 F (21.7 C)
Relative Humidity: 93%
Pressure (altimeter): 30.02 in. Hg (1016 hPa)
ob: KMCB 031614Z AUTO VRB05KT 2 1/2SM TSRA BR FEW021 BKN031 OVC080 23/22 A3002 RMK AO2 PK WND 33028/1554 LTG DSNT SW P0026 T02280217
cycle: 16

Station Type Date Time Source
KMCB TAF 2020/07/11 18:42 UTC NOAA

TAF KMCB 111739Z 1118/1218 34007KT P6SM VCSH SCT035
FM120000 VRB03KT P6SM FEW035 FEW250
FM121600 29006KT P6SM FEW035 SCT150

Example: see airport list